sensor_id;sensor_type;location;lat;lon;timestamp;temperature;humidity
21734;DHT22;11029;47.820;10.534;2023-09-19T00:00:39;14.10;78.10
21734;DHT22;11029;47.820;10.534;2023-09-19T00:03:08;14.10;78.00
21734;DHT22;11029;47.820;10.534;2023-09-19T00:05:36;14.10;78.00
21734;DHT22;11029;47.820;10.534;2023-09-19T00:08:03;14.10;77.80
21734;DHT22;11029;47.820;10.534;2023-09-19T00:10:31;14.00;78.00
21734;DHT22;11029;47.820;10.534;2023-09-19T00:12:58;14.00;77.40
21734;DHT22;11029;47.820;10.534;2023-09-19T00:15:26;13.90;78.20
21734;DHT22;11029;47.820;10.534;2023-09-19T00:17:55;13.90;78.40
21734;DHT22;11029;47.820;10.534;2023-09-19T00:20:23;13.90;78.30
21734;DHT22;11029;47.820;10.534;2023-09-19T00:22:50;13.90;77.20
21734;DHT22;11029;47.820;10.534;2023-09-19T00:25:19;14.00;76.60
21734;DHT22;11029;47.820;10.534;2023-09-19T00:27:47;14.20;76.50
21734;DHT22;11029;47.820;10.534;2023-09-19T00:30:18;14.30;75.80
21734;DHT22;11029;47.820;10.534;2023-09-19T00:32:48;14.40;75.60
21734;DHT22;11029;47.820;10.534;2023-09-19T00:35:16;14.50;75.20
21734;DHT22;11029;47.820;10.534;2023-09-19T00:37:43;14.60;75.20
21734;DHT22;11029;47.820;10.534;2023-09-19T00:40:10;14.60;75.20
21734;DHT22;11029;47.820;10.534;2023-09-19T00:42:42;14.70;75.30
21734;DHT22;11029;47.820;10.534;2023-09-19T00:45:10;14.70;75.10
21734;DHT22;11029;47.820;10.534;2023-09-19T00:47:44;14.70;74.30
21734;DHT22;11029;47.820;10.534;2023-09-19T00:50:12;14.60;74.50
21734;DHT22;11029;47.820;10.534;2023-09-19T00:52:42;14.60;74.60
21734;DHT22;11029;47.820;10.534;2023-09-19T00:55:10;14.70;75.00
21734;DHT22;11029;47.820;10.534;2023-09-19T00:57:37;14.70;74.70
21734;DHT22;11029;47.820;10.534;2023-09-19T01:00:08;14.60;74.60
21734;DHT22;11029;47.820;10.534;2023-09-19T01:02:37;14.60;74.90
21734;DHT22;11029;47.820;10.534;2023-09-19T01:05:05;14.50;74.60
21734;DHT22;11029;47.820;10.534;2023-09-19T01:07:32;14.60;74.20
21734;DHT22;11029;47.820;10.534;2023-09-19T01:10:02;14.50;74.10
21734;DHT22;11029;47.820;10.534;2023-09-19T01:12:45;14.50;74.50
21734;DHT22;11029;47.820;10.534;2023-09-19T01:18:09;14.50;74.20
21734;DHT22;11029;47.820;10.534;2023-09-19T01:20:53;14.50;74.40
21734;DHT22;11029;47.820;10.534;2023-09-19T01:28:51;14.60;74.80
21734;DHT22;11029;47.820;10.534;2023-09-19T01:31:21;14.60;75.00
21734;DHT22;11029;47.820;10.534;2023-09-19T01:33:58;14.60;75.50
21734;DHT22;11029;47.820;10.534;2023-09-19T01:36:36;14.50;75.90
21734;DHT22;11029;47.820;10.534;2023-09-19T01:39:06;14.60;75.80
21734;DHT22;11029;47.820;10.534;2023-09-19T01:41:59;14.60;75.90
21734;DHT22;11029;47.820;10.534;2023-09-19T01:47:02;14.60;76.50
21734;DHT22;11029;47.820;10.534;2023-09-19T01:52:34;14.60;76.70
21734;DHT22;11029;47.820;10.534;2023-09-19T01:55:06;14.70;76.80
21734;DHT22;11029;47.820;10.534;2023-09-19T01:57:44;14.60;76.90
21734;DHT22;11029;47.820;10.534;2023-09-19T02:00:12;14.60;77.00
21734;DHT22;11029;47.820;10.534;2023-09-19T02:02:43;14.60;77.20
21734;DHT22;11029;47.820;10.534;2023-09-19T02:05:11;14.60;77.30
21734;DHT22;11029;47.820;10.534;2023-09-19T02:07:39;14.60;77.50
21734;DHT22;11029;47.820;10.534;2023-09-19T02:10:07;14.60;77.30
21734;DHT22;11029;47.820;10.534;2023-09-19T02:12:36;14.50;77.40
21734;DHT22;11029;47.820;10.534;2023-09-19T02:15:03;14.50;77.50
21734;DHT22;11029;47.820;10.534;2023-09-19T02:17:30;14.50;77.80
21734;DHT22;11029;47.820;10.534;2023-09-19T02:19:57;14.40;77.90
21734;DHT22;11029;47.820;10.534;2023-09-19T02:22:26;14.40;78.10
21734;DHT22;11029;47.820;10.534;2023-09-19T02:24:53;14.40;78.30
21734;DHT22;11029;47.820;10.534;2023-09-19T02:27:20;14.30;78.40
21734;DHT22;11029;47.820;10.534;2023-09-19T02:29:47;14.30;78.50
21734;DHT22;11029;47.820;10.534;2023-09-19T02:32:16;14.30;78.60
21734;DHT22;11029;47.820;10.534;2023-09-19T02:34:46;14.30;78.60
21734;DHT22;11029;47.820;10.534;2023-09-19T02:37:13;14.30;78.20
21734;DHT22;11029;47.820;10.534;2023-09-19T02:39:43;14.30;78.30
21734;DHT22;11029;47.820;10.534;2023-09-19T02:42:11;14.30;78.10
21734;DHT22;11029;47.820;10.534;2023-09-19T02:44:38;14.30;77.70
21734;DHT22;11029;47.820;10.534;2023-09-19T02:47:06;14.30;77.70
21734;DHT22;11029;47.820;10.534;2023-09-19T02:49:33;14.40;77.50
21734;DHT22;11029;47.820;10.534;2023-09-19T02:52:01;14.30;77.60
21734;DHT22;11029;47.820;10.534;2023-09-19T02:54:30;14.30;77.40
21734;DHT22;11029;47.820;10.534;2023-09-19T02:56:57;14.30;77.00
21734;DHT22;11029;47.820;10.534;2023-09-19T02:59:25;14.30;77.20
21734;DHT22;11029;47.820;10.534;2023-09-19T03:01:53;14.30;77.20
21734;DHT22;11029;47.820;10.534;2023-09-19T03:04:21;14.30;77.50
21734;DHT22;11029;47.820;10.534;2023-09-19T03:06:49;14.20;77.50
21734;DHT22;11029;47.820;10.534;2023-09-19T03:09:18;14.20;77.50
21734;DHT22;11029;47.820;10.534;2023-09-19T03:11:48;14.30;77.20
21734;DHT22;11029;47.820;10.534;2023-09-19T03:14:15;14.30;77.20
21734;DHT22;11029;47.820;10.534;2023-09-19T03:16:43;14.30;77.20
21734;DHT22;11029;47.820;10.534;2023-09-19T03:19:13;14.20;77.20
21734;DHT22;11029;47.820;10.534;2023-09-19T03:21:42;14.20;77.20
21734;DHT22;11029;47.820;10.534;2023-09-19T03:24:09;14.20;77.10
21734;DHT22;11029;47.820;10.534;2023-09-19T03:29:22;14.20;77.20
21734;DHT22;11029;47.820;10.534;2023-09-19T03:31:55;14.20;77.30
21734;DHT22;11029;47.820;10.534;2023-09-19T03:34:22;14.10;77.10
21734;DHT22;11029;47.820;10.534;2023-09-19T03:36:49;14.10;77.00
21734;DHT22;11029;47.820;10.534;2023-09-19T03:39:20;14.10;77.10
21734;DHT22;11029;47.820;10.534;2023-09-19T03:44:18;14.10;77.50
21734;DHT22;11029;47.820;10.534;2023-09-19T03:49:16;14.10;77.30
21734;DHT22;11029;47.820;10.534;2023-09-19T03:51:43;14.20;77.20
21734;DHT22;11029;47.820;10.534;2023-09-19T03:54:10;14.20;77.00
21734;DHT22;11029;47.820;10.534;2023-09-19T03:56:37;14.30;77.30
21734;DHT22;11029;47.820;10.534;2023-09-19T03:59:04;14.30;76.70
21734;DHT22;11029;47.820;10.534;2023-09-19T04:01:31;14.30;76.90
21734;DHT22;11029;47.820;10.534;2023-09-19T04:03:59;14.30;76.80
21734;DHT22;11029;47.820;10.534;2023-09-19T04:06:35;14.30;76.80
21734;DHT22;11029;47.820;10.534;2023-09-19T04:09:03;14.30;76.70
21734;DHT22;11029;47.820;10.534;2023-09-19T04:11:30;14.30;76.70
21734;DHT22;11029;47.820;10.534;2023-09-19T04:13:57;14.30;77.00
21734;DHT22;11029;47.820;10.534;2023-09-19T04:16:24;14.30;77.10
21734;DHT22;11029;47.820;10.534;2023-09-19T04:18:52;14.30;77.00
21734;DHT22;11029;47.820;10.534;2023-09-19T04:21:18;14.30;76.90
21734;DHT22;11029;47.820;10.534;2023-09-19T04:23:45;14.30;77.10
21734;DHT22;11029;47.820;10.534;2023-09-19T04:26:14;14.30;77.20
21734;DHT22;11029;47.820;10.534;2023-09-19T04:28:43;14.30;77.20
21734;DHT22;11029;47.820;10.534;2023-09-19T04:31:10;14.30;77.30
21734;DHT22;11029;47.820;10.534;2023-09-19T04:33:38;14.20;77.20
21734;DHT22;11029;47.820;10.534;2023-09-19T04:36:05;14.20;77.40
21734;DHT22;11029;47.820;10.534;2023-09-19T04:38:54;14.20;77.40
21734;DHT22;11029;47.820;10.534;2023-09-19T04:41:21;14.20;77.40
21734;DHT22;11029;47.820;10.534;2023-09-19T04:43:48;14.20;77.40
21734;DHT22;11029;47.820;10.534;2023-09-19T04:46:17;14.30;77.20
21734;DHT22;11029;47.820;10.534;2023-09-19T04:48:44;14.20;77.20
21734;DHT22;11029;47.820;10.534;2023-09-19T04:51:11;14.20;77.30
21734;DHT22;11029;47.820;10.534;2023-09-19T04:53:38;14.20;77.20
21734;DHT22;11029;47.820;10.534;2023-09-19T04:56:05;14.30;77.70
21734;DHT22;11029;47.820;10.534;2023-09-19T04:58:34;14.30;77.30
21734;DHT22;11029;47.820;10.534;2023-09-19T05:01:01;14.30;77.10
21734;DHT22;11029;47.820;10.534;2023-09-19T05:03:29;14.30;77.20
21734;DHT22;11029;47.820;10.534;2023-09-19T05:05:56;14.30;77.30
21734;DHT22;11029;47.820;10.534;2023-09-19T05:08:23;14.30;77.30
21734;DHT22;11029;47.820;10.534;2023-09-19T05:10:50;14.30;77.20
21734;DHT22;11029;47.820;10.534;2023-09-19T05:13:17;14.20;77.60
21734;DHT22;11029;47.820;10.534;2023-09-19T05:15:44;14.20;77.80
21734;DHT22;11029;47.820;10.534;2023-09-19T05:18:11;14.20;77.80
21734;DHT22;11029;47.820;10.534;2023-09-19T05:20:38;14.20;77.90
21734;DHT22;11029;47.820;10.534;2023-09-19T05:23:06;14.20;78.00
21734;DHT22;11029;47.820;10.534;2023-09-19T05:25:39;14.20;77.90
21734;DHT22;11029;47.820;10.534;2023-09-19T05:28:07;14.20;78.10
21734;DHT22;11029;47.820;10.534;2023-09-19T05:30:35;14.20;77.80
21734;DHT22;11029;47.820;10.534;2023-09-19T05:33:05;14.20;77.90
21734;DHT22;11029;47.820;10.534;2023-09-19T05:35:32;14.30;77.70
21734;DHT22;11029;47.820;10.534;2023-09-19T05:37:59;14.30;77.80
21734;DHT22;11029;47.820;10.534;2023-09-19T05:40:26;14.30;77.80
21734;DHT22;11029;47.820;10.534;2023-09-19T05:42:53;14.30;77.70
21734;DHT22;11029;47.820;10.534;2023-09-19T05:45:20;14.30;77.60
21734;DHT22;11029;47.820;10.534;2023-09-19T05:47:51;14.30;77.80
21734;DHT22;11029;47.820;10.534;2023-09-19T05:50:20;14.30;77.50
21734;DHT22;11029;47.820;10.534;2023-09-19T05:52:52;14.40;77.00
21734;DHT22;11029;47.820;10.534;2023-09-19T05:55:19;14.50;76.40
21734;DHT22;11029;47.820;10.534;2023-09-19T05:57:50;14.50;76.60
21734;DHT22;11029;47.820;10.534;2023-09-19T06:00:18;14.50;76.70
21734;DHT22;11029;47.820;10.534;2023-09-19T06:02:49;14.60;76.60
21734;DHT22;11029;47.820;10.534;2023-09-19T06:05:16;14.60;76.20
21734;DHT22;11029;47.820;10.534;2023-09-19T06:07:43;14.60;76.80
21734;DHT22;11029;47.820;10.534;2023-09-19T06:10:09;14.60;76.90
21734;DHT22;11029;47.820;10.534;2023-09-19T06:12:39;14.70;76.50
21734;DHT22;11029;47.820;10.534;2023-09-19T06:15:06;14.70;76.80
21734;DHT22;11029;47.820;10.534;2023-09-19T06:17:39;14.70;76.50
21734;DHT22;11029;47.820;10.534;2023-09-19T06:20:06;14.80;76.30
21734;DHT22;11029;47.820;10.534;2023-09-19T06:22:39;14.80;76.10
21734;DHT22;11029;47.820;10.534;2023-09-19T06:25:12;14.80;76.30
21734;DHT22;11029;47.820;10.534;2023-09-19T06:27:46;14.80;76.40
21734;DHT22;11029;47.820;10.534;2023-09-19T06:30:13;14.80;76.10
21734;DHT22;11029;47.820;10.534;2023-09-19T06:32:40;14.90;75.60
21734;DHT22;11029;47.820;10.534;2023-09-19T06:35:11;14.90;75.60
21734;DHT22;11029;47.820;10.534;2023-09-19T06:37:38;14.90;75.80
21734;DHT22;11029;47.820;10.534;2023-09-19T06:40:06;14.90;75.60
21734;DHT22;11029;47.820;10.534;2023-09-19T06:42:33;14.90;75.80
21734;DHT22;11029;47.820;10.534;2023-09-19T06:45:00;15.00;75.40
21734;DHT22;11029;47.820;10.534;2023-09-19T06:47:27;15.00;75.60
21734;DHT22;11029;47.820;10.534;2023-09-19T06:49:53;15.10;75.00
21734;DHT22;11029;47.820;10.534;2023-09-19T06:52:20;15.10;74.10
21734;DHT22;11029;47.820;10.534;2023-09-19T06:54:48;15.10;74.50
21734;DHT22;11029;47.820;10.534;2023-09-19T06:57:16;15.10;74.70
21734;DHT22;11029;47.820;10.534;2023-09-19T06:59:43;15.10;74.70
21734;DHT22;11029;47.820;10.534;2023-09-19T07:02:11;15.20;73.90
21734;DHT22;11029;47.820;10.534;2023-09-19T07:04:38;15.20;73.90
21734;DHT22;11029;47.820;10.534;2023-09-19T07:07:05;15.20;74.10
21734;DHT22;11029;47.820;10.534;2023-09-19T07:09:31;15.30;74.10
21734;DHT22;11029;47.820;10.534;2023-09-19T07:11:58;15.30;73.50
21734;DHT22;11029;47.820;10.534;2023-09-19T07:14:25;15.40;73.80
21734;DHT22;11029;47.820;10.534;2023-09-19T07:16:52;15.60;73.30
21734;DHT22;11029;47.820;10.534;2023-09-19T07:19:18;15.70;71.90
21734;DHT22;11029;47.820;10.534;2023-09-19T07:21:45;15.80;72.80
21734;DHT22;11029;47.820;10.534;2023-09-19T07:24:13;15.90;71.90
21734;DHT22;11029;47.820;10.534;2023-09-19T07:26:40;16.10;71.80
21734;DHT22;11029;47.820;10.534;2023-09-19T07:29:07;16.10;72.40
21734;DHT22;11029;47.820;10.534;2023-09-19T07:31:35;16.20;72.20
21734;DHT22;11029;47.820;10.534;2023-09-19T07:34:02;16.20;70.50
21734;DHT22;11029;47.820;10.534;2023-09-19T07:36:30;16.20;71.70
21734;DHT22;11029;47.820;10.534;2023-09-19T07:38:58;16.40;70.70
21734;DHT22;11029;47.820;10.534;2023-09-19T07:41:46;16.40;70.20
21734;DHT22;11029;47.820;10.534;2023-09-19T07:44:12;16.50;71.20
21734;DHT22;11029;47.820;10.534;2023-09-19T07:46:39;16.50;70.70
21734;DHT22;11029;47.820;10.534;2023-09-19T07:49:06;16.30;69.90
21734;DHT22;11029;47.820;10.534;2023-09-19T07:51:33;16.00;70.40
21734;DHT22;11029;47.820;10.534;2023-09-19T07:53:59;16.00;71.20
21734;DHT22;11029;47.820;10.534;2023-09-19T07:56:26;16.00;70.80
21734;DHT22;11029;47.820;10.534;2023-09-19T07:58:54;16.00;71.20
21734;DHT22;11029;47.820;10.534;2023-09-19T08:01:21;16.00;70.80
21734;DHT22;11029;47.820;10.534;2023-09-19T08:03:50;16.10;71.90
21734;DHT22;11029;47.820;10.534;2023-09-19T08:06:17;16.10;70.70
21734;DHT22;11029;47.820;10.534;2023-09-19T08:08:45;16.20;70.30
21734;DHT22;11029;47.820;10.534;2023-09-19T08:11:12;16.30;70.60
21734;DHT22;11029;47.820;10.534;2023-09-19T08:13:39;16.40;70.20
21734;DHT22;11029;47.820;10.534;2023-09-19T08:16:15;16.50;69.40
21734;DHT22;11029;47.820;10.534;2023-09-19T08:18:47;16.60;69.20
21734;DHT22;11029;47.820;10.534;2023-09-19T08:21:13;16.50;69.30
21734;DHT22;11029;47.820;10.534;2023-09-19T08:23:43;16.50;69.90
21734;DHT22;11029;47.820;10.534;2023-09-19T08:26:11;16.40;70.00
21734;DHT22;11029;47.820;10.534;2023-09-19T08:28:37;16.40;70.50
21734;DHT22;11029;47.820;10.534;2023-09-19T08:31:07;16.60;70.20
21734;DHT22;11029;47.820;10.534;2023-09-19T08:33:35;16.60;69.50
21734;DHT22;11029;47.820;10.534;2023-09-19T08:36:03;16.60;69.70
21734;DHT22;11029;47.820;10.534;2023-09-19T08:38:34;16.60;68.40
21734;DHT22;11029;47.820;10.534;2023-09-19T08:41:04;16.50;69.90
21734;DHT22;11029;47.820;10.534;2023-09-19T08:43:31;16.50;69.50
21734;DHT22;11029;47.820;10.534;2023-09-19T08:46:15;16.50;69.70
21734;DHT22;11029;47.820;10.534;2023-09-19T08:48:50;16.50;69.30
21734;DHT22;11029;47.820;10.534;2023-09-19T08:51:30;16.60;69.30
21734;DHT22;11029;47.820;10.534;2023-09-19T08:54:03;16.70;68.70
21734;DHT22;11029;47.820;10.534;2023-09-19T08:56:33;16.60;68.10
21734;DHT22;11029;47.820;10.534;2023-09-19T08:59:00;16.60;68.90
21734;DHT22;11029;47.820;10.534;2023-09-19T09:01:28;16.70;68.40
21734;DHT22;11029;47.820;10.534;2023-09-19T09:03:56;16.80;66.30
21734;DHT22;11029;47.820;10.534;2023-09-19T09:06:23;16.90;66.00
21734;DHT22;11029;47.820;10.534;2023-09-19T09:08:51;16.90;67.00
21734;DHT22;11029;47.820;10.534;2023-09-19T09:11:18;17.00;66.10
21734;DHT22;11029;47.820;10.534;2023-09-19T09:13:46;17.20;66.60
21734;DHT22;11029;47.820;10.534;2023-09-19T09:16:13;17.20;65.80
21734;DHT22;11029;47.820;10.534;2023-09-19T09:18:40;17.20;66.50
21734;DHT22;11029;47.820;10.534;2023-09-19T09:21:07;17.00;66.40
21734;DHT22;11029;47.820;10.534;2023-09-19T09:23:35;17.10;67.20
21734;DHT22;11029;47.820;10.534;2023-09-19T09:26:02;17.10;66.60
21734;DHT22;11029;47.820;10.534;2023-09-19T09:28:30;17.20;66.30
21734;DHT22;11029;47.820;10.534;2023-09-19T09:30:57;17.30;65.00
21734;DHT22;11029;47.820;10.534;2023-09-19T09:33:25;17.40;65.40
21734;DHT22;11029;47.820;10.534;2023-09-19T09:38:19;17.60;64.40
21734;DHT22;11029;47.820;10.534;2023-09-19T09:40:50;17.70;66.20
21734;DHT22;11029;47.820;10.534;2023-09-19T09:46:06;17.40;63.90
21734;DHT22;11029;47.820;10.534;2023-09-19T09:48:56;17.50;63.40
21734;DHT22;11029;47.820;10.534;2023-09-19T09:51:43;17.30;63.70
21734;DHT22;11029;47.820;10.534;2023-09-19T09:54:12;17.20;64.50
21734;DHT22;11029;47.820;10.534;2023-09-19T09:56:59;17.20;64.50
21734;DHT22;11029;47.820;10.534;2023-09-19T10:02:17;17.30;63.10
21734;DHT22;11029;47.820;10.534;2023-09-19T10:04:52;17.40;62.20
21734;DHT22;11029;47.820;10.534;2023-09-19T10:07:25;17.60;61.90
21734;DHT22;11029;47.820;10.534;2023-09-19T10:09:54;17.70;60.80
21734;DHT22;11029;47.820;10.534;2023-09-19T10:12:31;17.80;61.50
21734;DHT22;11029;47.820;10.534;2023-09-19T10:14:58;17.70;62.20
21734;DHT22;11029;47.820;10.534;2023-09-19T10:17:27;17.70;60.90
21734;DHT22;11029;47.820;10.534;2023-09-19T10:19:57;17.50;61.40
21734;DHT22;11029;47.820;10.534;2023-09-19T10:22:31;17.60;63.20
21734;DHT22;11029;47.820;10.534;2023-09-19T10:25:02;17.70;62.40
21734;DHT22;11029;47.820;10.534;2023-09-19T10:27:31;17.70;62.70
21734;DHT22;11029;47.820;10.534;2023-09-19T10:30:05;17.50;62.50
21734;DHT22;11029;47.820;10.534;2023-09-19T10:32:34;17.50;62.20
21734;DHT22;11029;47.820;10.534;2023-09-19T10:35:02;17.40;63.00
21734;DHT22;11029;47.820;10.534;2023-09-19T10:37:31;17.60;63.00
21734;DHT22;11029;47.820;10.534;2023-09-19T10:39:59;17.60;63.30
21734;DHT22;11029;47.820;10.534;2023-09-19T10:42:25;17.50;63.70
21734;DHT22;11029;47.820;10.534;2023-09-19T10:44:56;17.50;63.20
21734;DHT22;11029;47.820;10.534;2023-09-19T10:47:26;17.40;62.70
21734;DHT22;11029;47.820;10.534;2023-09-19T10:49:53;17.40;62.90
21734;DHT22;11029;47.820;10.534;2023-09-19T10:52:22;17.30;62.80
21734;DHT22;11029;47.820;10.534;2023-09-19T10:54:51;17.40;63.70
21734;DHT22;11029;47.820;10.534;2023-09-19T10:57:21;17.40;63.40
21734;DHT22;11029;47.820;10.534;2023-09-19T11:00:03;17.60;63.80
21734;DHT22;11029;47.820;10.534;2023-09-19T11:05:39;17.60;61.70
21734;DHT22;11029;47.820;10.534;2023-09-19T11:08:07;17.60;62.80
21734;DHT22;11029;47.820;10.534;2023-09-19T11:10:43;17.80;61.90
21734;DHT22;11029;47.820;10.534;2023-09-19T11:13:24;17.80;62.60
21734;DHT22;11029;47.820;10.534;2023-09-19T11:26:43;18.60;61.40
21734;DHT22;11029;47.820;10.534;2023-09-19T11:29:26;18.70;60.00
21734;DHT22;11029;47.820;10.534;2023-09-19T11:31:53;18.40;61.60
21734;DHT22;11029;47.820;10.534;2023-09-19T11:37:03;18.20;62.80
21734;DHT22;11029;47.820;10.534;2023-09-19T11:39:31;18.30;64.30
21734;DHT22;11029;47.820;10.534;2023-09-19T11:41:59;18.40;63.20
21734;DHT22;11029;47.820;10.534;2023-09-19T11:46:56;18.40;62.20
21734;DHT22;11029;47.820;10.534;2023-09-19T11:49:29;18.00;62.70
21734;DHT22;11029;47.820;10.534;2023-09-19T11:51:57;17.70;63.30
21734;DHT22;11029;47.820;10.534;2023-09-19T11:54:24;17.80;63.10
21734;DHT22;11029;47.820;10.534;2023-09-19T11:56:54;18.00;63.60
21734;DHT22;11029;47.820;10.534;2023-09-19T11:59:21;18.10;61.80
21734;DHT22;11029;47.820;10.534;2023-09-19T12:01:53;18.10;61.90
21734;DHT22;11029;47.820;10.534;2023-09-19T12:04:40;18.20;61.00
21734;DHT22;11029;47.820;10.534;2023-09-19T12:07:11;18.00;61.40
21734;DHT22;11029;47.820;10.534;2023-09-19T12:09:43;18.00;61.70
21734;DHT22;11029;47.820;10.534;2023-09-19T12:12:11;18.00;61.80
21734;DHT22;11029;47.820;10.534;2023-09-19T12:14:47;17.90;63.00
21734;DHT22;11029;47.820;10.534;2023-09-19T12:17:14;18.10;61.20
21734;DHT22;11029;47.820;10.534;2023-09-19T12:19:49;18.00;60.90
21734;DHT22;11029;47.820;10.534;2023-09-19T12:22:16;18.10;61.40
21734;DHT22;11029;47.820;10.534;2023-09-19T12:24:44;18.10;60.30
21734;DHT22;11029;47.820;10.534;2023-09-19T12:27:11;18.20;60.60
21734;DHT22;11029;47.820;10.534;2023-09-19T12:29:42;18.20;59.20
21734;DHT22;11029;47.820;10.534;2023-09-19T12:32:09;18.30;59.20
21734;DHT22;11029;47.820;10.534;2023-09-19T12:34:37;18.30;59.10
21734;DHT22;11029;47.820;10.534;2023-09-19T12:39:40;18.70;59.20
21734;DHT22;11029;47.820;10.534;2023-09-19T12:42:10;18.80;58.20
21734;DHT22;11029;47.820;10.534;2023-09-19T12:44:41;18.60;58.70
21734;DHT22;11029;47.820;10.534;2023-09-19T12:47:10;18.70;59.10
21734;DHT22;11029;47.820;10.534;2023-09-19T12:50:04;18.80;58.30
21734;DHT22;11029;47.820;10.534;2023-09-19T12:52:24;18.80;59.00
21734;DHT22;11029;47.820;10.534;2023-09-19T12:54:52;18.70;58.80
21734;DHT22;11029;47.820;10.534;2023-09-19T12:57:25;18.40;59.60
21734;DHT22;11029;47.820;10.534;2023-09-19T12:59:52;18.60;60.20
21734;DHT22;11029;47.820;10.534;2023-09-19T13:02:19;18.60;60.80
21734;DHT22;11029;47.820;10.534;2023-09-19T13:04:53;18.90;60.00
21734;DHT22;11029;47.820;10.534;2023-09-19T13:10:06;19.20;58.40
21734;DHT22;11029;47.820;10.534;2023-09-19T13:12:35;19.40;57.70
21734;DHT22;11029;47.820;10.534;2023-09-19T13:15:07;19.40;57.80
21734;DHT22;11029;47.820;10.534;2023-09-19T13:17:46;19.30;57.50
21734;DHT22;11029;47.820;10.534;2023-09-19T13:20:24;19.30;57.30
21734;DHT22;11029;47.820;10.534;2023-09-19T13:22:54;19.30;57.30
21734;DHT22;11029;47.820;10.534;2023-09-19T13:25:25;19.30;56.00
21734;DHT22;11029;47.820;10.534;2023-09-19T13:27:53;19.60;56.40
21734;DHT22;11029;47.820;10.534;2023-09-19T13:30:26;19.70;56.40
21734;DHT22;11029;47.820;10.534;2023-09-19T13:33:04;19.50;56.20
21734;DHT22;11029;47.820;10.534;2023-09-19T13:35:32;19.20;57.30
21734;DHT22;11029;47.820;10.534;2023-09-19T13:37:59;19.20;57.60
21734;DHT22;11029;47.820;10.534;2023-09-19T13:40:27;19.30;58.70
21734;DHT22;11029;47.820;10.534;2023-09-19T13:43:01;19.60;58.30
21734;DHT22;11029;47.820;10.534;2023-09-19T13:45:28;20.00;55.80
21734;DHT22;11029;47.820;10.534;2023-09-19T13:47:57;19.60;55.80
21734;DHT22;11029;47.820;10.534;2023-09-19T13:50:25;19.30;56.70
21734;DHT22;11029;47.820;10.534;2023-09-19T13:52:53;19.40;57.10
21734;DHT22;11029;47.820;10.534;2023-09-19T13:55:20;19.20;55.80
21734;DHT22;11029;47.820;10.534;2023-09-19T13:57:47;18.90;56.40
21734;DHT22;11029;47.820;10.534;2023-09-19T14:00:21;19.20;56.40
21734;DHT22;11029;47.820;10.534;2023-09-19T14:02:49;19.00;56.90
21734;DHT22;11029;47.820;10.534;2023-09-19T14:05:18;19.40;56.60
21734;DHT22;11029;47.820;10.534;2023-09-19T14:07:45;19.30;56.20
21734;DHT22;11029;47.820;10.534;2023-09-19T14:10:13;19.50;55.90
21734;DHT22;11029;47.820;10.534;2023-09-19T14:12:39;19.80;55.50
21734;DHT22;11029;47.820;10.534;2023-09-19T14:15:10;20.20;54.80
21734;DHT22;11029;47.820;10.534;2023-09-19T14:17:37;20.40;54.00
21734;DHT22;11029;47.820;10.534;2023-09-19T14:20:04;20.80;53.30
21734;DHT22;11029;47.820;10.534;2023-09-19T14:22:33;21.00;51.50
21734;DHT22;11029;47.820;10.534;2023-09-19T14:25:01;21.10;52.60
21734;DHT22;11029;47.820;10.534;2023-09-19T14:27:27;21.10;50.00
21734;DHT22;11029;47.820;10.534;2023-09-19T14:29:54;20.80;51.80
21734;DHT22;11029;47.820;10.534;2023-09-19T14:32:22;20.70;51.50
21734;DHT22;11029;47.820;10.534;2023-09-19T14:34:49;21.10;51.80
21734;DHT22;11029;47.820;10.534;2023-09-19T14:37:16;21.20;51.50
21734;DHT22;11029;47.820;10.534;2023-09-19T14:39:47;21.20;50.60
21734;DHT22;11029;47.820;10.534;2023-09-19T14:42:14;21.50;49.80
21734;DHT22;11029;47.820;10.534;2023-09-19T14:44:44;22.00;50.00
21734;DHT22;11029;47.820;10.534;2023-09-19T14:47:11;22.50;47.80
21734;DHT22;11029;47.820;10.534;2023-09-19T14:49:40;23.50;46.90
21734;DHT22;11029;47.820;10.534;2023-09-19T14:52:07;23.90;46.30
21734;DHT22;11029;47.820;10.534;2023-09-19T14:54:34;24.40;45.30
21734;DHT22;11029;47.820;10.534;2023-09-19T14:57:01;25.40;43.80
21734;DHT22;11029;47.820;10.534;2023-09-19T14:59:31;26.60;40.90
21734;DHT22;11029;47.820;10.534;2023-09-19T15:01:58;27.60;40.30
21734;DHT22;11029;47.820;10.534;2023-09-19T15:04:26;28.30;38.10
21734;DHT22;11029;47.820;10.534;2023-09-19T15:06:53;27.90;38.80
21734;DHT22;11029;47.820;10.534;2023-09-19T15:09:24;27.10;39.50
21734;DHT22;11029;47.820;10.534;2023-09-19T15:11:52;25.50;41.40
21734;DHT22;11029;47.820;10.534;2023-09-19T15:14:20;24.80;42.50
21734;DHT22;11029;47.820;10.534;2023-09-19T15:16:47;25.70;41.90
21734;DHT22;11029;47.820;10.534;2023-09-19T15:19:14;26.50;41.60
21734;DHT22;11029;47.820;10.534;2023-09-19T15:21:41;27.60;39.20
21734;DHT22;11029;47.820;10.534;2023-09-19T15:24:08;26.30;40.90
21734;DHT22;11029;47.820;10.534;2023-09-19T15:26:36;26.30;41.80
21734;DHT22;11029;47.820;10.534;2023-09-19T15:29:06;26.70;41.00
21734;DHT22;11029;47.820;10.534;2023-09-19T15:31:33;26.80;41.30
21734;DHT22;11029;47.820;10.534;2023-09-19T15:34:03;27.80;39.20
21734;DHT22;11029;47.820;10.534;2023-09-19T15:36:30;26.80;40.30
21734;DHT22;11029;47.820;10.534;2023-09-19T15:39:00;26.40;41.50
21734;DHT22;11029;47.820;10.534;2023-09-19T15:41:29;25.30;41.60
21734;DHT22;11029;47.820;10.534;2023-09-19T15:43:57;25.40;42.40
21734;DHT22;11029;47.820;10.534;2023-09-19T15:46:26;24.40;44.20
21734;DHT22;11029;47.820;10.534;2023-09-19T15:48:53;24.90;43.50
21734;DHT22;11029;47.820;10.534;2023-09-19T15:51:20;26.70;41.60
21734;DHT22;11029;47.820;10.534;2023-09-19T15:53:48;27.90;38.60
21734;DHT22;11029;47.820;10.534;2023-09-19T15:56:15;27.60;38.50
21734;DHT22;11029;47.820;10.534;2023-09-19T15:58:47;26.40;40.60
21734;DHT22;11029;47.820;10.534;2023-09-19T16:01:14;26.00;41.80
21734;DHT22;11029;47.820;10.534;2023-09-19T16:03:45;26.20;41.00
21734;DHT22;11029;47.820;10.534;2023-09-19T16:06:18;25.80;42.20
21734;DHT22;11029;47.820;10.534;2023-09-19T16:08:47;24.80;42.80
21734;DHT22;11029;47.820;10.534;2023-09-19T16:11:16;24.50;43.80
21734;DHT22;11029;47.820;10.534;2023-09-19T16:13:43;24.50;43.90
21734;DHT22;11029;47.820;10.534;2023-09-19T16:16:12;25.00;42.80
21734;DHT22;11029;47.820;10.534;2023-09-19T16:18:40;24.80;43.40
21734;DHT22;11029;47.820;10.534;2023-09-19T16:21:07;24.60;43.50